createdAt,value
2023-04-11T00:01:15.430Z,52.90
2023-04-11T00:03:43.730Z,52.90
2023-04-11T00:06:12.372Z,53.10
2023-04-11T00:08:42.313Z,53.00
2023-04-11T00:11:10.830Z,53.10
2023-04-11T00:13:38.868Z,53.00
2023-04-11T00:16:08.823Z,53.10
2023-04-11T00:18:39.842Z,53.20
2023-04-11T00:21:10.360Z,53.20
2023-04-11T00:23:38.901Z,53.20
2023-04-11T00:26:08.855Z,53.30
2023-04-11T00:28:37.462Z,53.30
2023-04-11T00:31:05.812Z,53.20
2023-04-11T00:33:34.336Z,53.30
2023-04-11T00:36:03.066Z,53.30
2023-04-11T00:38:31.181Z,53.30
2023-04-11T00:40:59.707Z,53.30
2023-04-11T00:43:29.105Z,53.40
2023-04-11T00:45:57.833Z,53.50
2023-04-11T00:48:28.370Z,53.50
2023-04-11T00:50:57.340Z,53.60
2023-04-11T00:53:25.952Z,53.70
2023-04-11T00:55:54.646Z,53.70
2023-04-11T00:58:22.753Z,53.70
2023-04-11T01:00:52.714Z,53.70
2023-04-11T01:03:22.355Z,53.70
2023-04-11T01:05:53.939Z,53.80
2023-04-11T01:08:23.939Z,54.00
2023-04-11T01:10:51.992Z,54.00
2023-04-11T01:13:20.781Z,54.10
2023-04-11T01:15:49.034Z,54.20
2023-04-11T01:18:18.954Z,54.30
2023-04-11T01:20:47.497Z,54.30
2023-04-11T01:23:22.440Z,54.60
2023-04-11T01:25:50.772Z,54.60
2023-04-11T01:28:20.203Z,54.70
2023-04-11T01:30:49.212Z,55.00
2023-04-11T01:33:18.159Z,55.10
2023-04-11T01:35:46.722Z,55.70
2023-04-11T01:38:15.436Z,55.90
2023-04-11T01:40:46.024Z,55.80
2023-04-11T01:43:14.677Z,55.90
2023-04-11T01:45:42.771Z,55.70
2023-04-11T01:48:11.436Z,56.20
2023-04-11T01:50:40.013Z,56.20
2023-04-11T01:53:08.710Z,56.40
2023-04-11T01:55:36.761Z,56.70
2023-04-11T01:58:06.651Z,56.80
2023-04-11T02:00:37.466Z,57.30
2023-04-11T02:03:05.784Z,57.00
2023-04-11T02:05:34.501Z,57.90
2023-04-11T02:08:03.064Z,58.10
2023-04-11T02:10:31.116Z,58.40
2023-04-11T02:12:59.657Z,58.50
2023-04-11T02:15:29.645Z,58.80
2023-04-11T02:18:00.377Z,59.10
2023-04-11T02:20:29.517Z,59.30
2023-04-11T02:22:59.149Z,59.40
2023-04-11T02:25:27.193Z,59.70
2023-04-11T02:27:55.799Z,60.00
2023-04-11T02:30:24.079Z,60.00
2023-04-11T02:32:54.090Z,60.60
2023-04-11T02:35:22.203Z,61.50
2023-04-11T02:37:50.756Z,61.60
2023-04-11T02:40:18.944Z,61.90
2023-04-11T02:42:47.024Z,62.30
2023-04-11T02:45:15.703Z,62.60
2023-04-11T02:47:43.807Z,62.50
2023-04-11T02:50:13.389Z,62.90
2023-04-11T02:52:42.720Z,63.00
2023-04-11T02:55:11.391Z,62.70
2023-04-11T02:57:39.926Z,62.80
2023-04-11T03:00:09.713Z,62.60
2023-04-11T03:02:38.486Z,62.90
2023-04-11T03:05:07.723Z,62.80
2023-04-11T03:07:38.970Z,63.00
2023-04-11T03:10:08.402Z,63.20
2023-04-11T03:12:36.965Z,63.30
2023-04-11T03:15:06.065Z,63.40
2023-04-11T03:17:35.992Z,63.20
2023-04-11T03:20:07.186Z,63.40
2023-04-11T03:22:37.142Z,63.50
2023-04-11T03:25:06.453Z,63.70
2023-04-11T03:27:34.981Z,63.70
2023-04-11T03:30:03.695Z,63.60
2023-04-11T03:32:32.037Z,63.60
2023-04-11T03:35:02.581Z,63.20
2023-04-11T03:37:30.661Z,63.70
2023-04-11T03:40:00.101Z,63.50
2023-04-11T03:42:28.770Z,63.50
2023-04-11T03:44:56.850Z,64.00
2023-04-11T03:47:25.435Z,65.40
2023-04-11T03:49:53.535Z,65.50
2023-04-11T03:52:21.597Z,64.60
2023-04-11T03:54:50.143Z,66.00
2023-04-11T03:57:19.563Z,66.50
2023-04-11T03:59:48.437Z,66.70
2023-04-11T04:02:17.475Z,66.90
2023-04-11T04:04:48.696Z,67.20
2023-04-11T04:07:18.569Z,67.30
2023-04-11T04:09:46.650Z,68.20
2023-04-11T04:12:15.251Z,67.40
2023-04-11T04:14:44.707Z,67.60
2023-04-11T04:17:14.144Z,68.30
2023-04-11T04:19:42.743Z,68.00
2023-04-11T04:22:13.333Z,68.20
2023-04-11T04:24:42.674Z,68.40
2023-04-11T04:27:11.198Z,68.20
2023-04-11T04:29:39.600Z,68.10
2023-04-11T04:32:11.580Z,68.60
2023-04-11T04:34:47.229Z,68.80
2023-04-11T04:37:21.793Z,68.90
2023-04-11T04:39:54.745Z,68.80
2023-04-11T04:42:24.620Z,69.20
2023-04-11T04:44:53.407Z,69.30
2023-04-11T04:47:25.110Z,69.30
2023-04-11T04:49:57.089Z,70.00
2023-04-11T04:52:26.296Z,70.00
2023-04-11T04:54:57.866Z,69.70
2023-04-11T04:57:25.971Z,69.40
2023-04-11T04:59:54.161Z,69.70
2023-04-11T05:02:25.555Z,70.20
2023-04-11T05:04:54.625Z,70.40
2023-04-11T05:07:22.684Z,70.20
2023-04-11T05:09:50.798Z,70.00
2023-04-11T05:12:20.279Z,69.80
2023-04-11T05:14:49.116Z,69.50
2023-04-11T05:17:17.700Z,69.30
2023-04-11T05:19:47.117Z,69.00
2023-04-11T05:22:15.637Z,68.80
2023-04-11T05:24:43.922Z,68.60
2023-04-11T05:27:13.985Z,68.60
2023-04-11T05:29:42.066Z,68.60
2023-04-11T05:32:10.632Z,68.60
2023-04-11T05:34:56.536Z,68.50
2023-04-11T05:37:26.532Z,69.00
2023-04-11T05:39:56.793Z,68.30
2023-04-11T05:42:25.283Z,68.40
2023-04-11T05:44:53.354Z,68.30
2023-04-11T05:47:21.968Z,68.30
2023-04-11T05:49:50.090Z,68.40
2023-04-11T05:52:19.514Z,68.50
2023-04-11T05:54:48.045Z,68.50
2023-04-11T05:57:17.508Z,68.30
2023-04-11T05:59:49.804Z,68.20
2023-04-11T06:02:18.518Z,68.30
2023-04-11T06:04:47.025Z,68.10
2023-04-11T06:07:15.798Z,68.10
2023-04-11T06:09:45.542Z,68.20
2023-04-11T06:12:14.061Z,68.20
2023-04-11T06:14:42.178Z,68.20
2023-04-11T06:17:10.719Z,68.30
2023-04-11T06:19:39.272Z,68.20
2023-04-11T06:22:07.334Z,69.00
2023-04-11T06:24:40.118Z,68.00
2023-04-11T06:27:10.865Z,68.00
2023-04-11T06:29:39.030Z,67.90
2023-04-11T06:32:07.852Z,67.60
2023-04-11T06:34:36.265Z,67.60
2023-04-11T06:37:04.795Z,67.70
2023-04-11T06:39:33.339Z,67.70
2023-04-11T06:42:02.166Z,67.70
2023-04-11T06:44:32.125Z,67.70
2023-04-11T06:47:01.145Z,67.80
2023-04-11T06:49:29.532Z,67.80
2023-04-11T06:51:58.105Z,68.00
2023-04-11T06:54:26.731Z,67.80
2023-04-11T06:56:54.794Z,68.00
2023-04-11T06:59:24.650Z,68.00
2023-04-11T07:01:54.373Z,68.10
2023-04-11T07:04:23.233Z,68.30
2023-04-11T07:06:51.702Z,68.40
2023-04-11T07:09:19.809Z,68.40
2023-04-11T07:11:48.316Z,68.50
2023-04-11T07:14:16.391Z,68.50
2023-04-11T07:16:45.008Z,68.60
2023-04-11T07:19:14.474Z,68.90
2023-04-11T07:21:43.348Z,68.90
2023-04-11T07:24:13.238Z,68.60
2023-04-11T07:26:42.781Z,68.70
2023-04-11T07:29:13.096Z,68.60
2023-04-11T07:31:45.326Z,68.60
2023-04-11T07:34:15.472Z,68.90
2023-04-11T07:36:43.538Z,68.60
2023-04-11T07:39:14.562Z,68.50
2023-04-11T07:41:42.651Z,68.40
2023-04-11T07:44:11.262Z,68.60
2023-04-11T07:46:39.366Z,68.50
2023-04-11T07:49:08.026Z,68.40
2023-04-11T07:51:37.578Z,68.20
2023-04-11T07:54:06.180Z,68.10
2023-04-11T07:56:34.733Z,67.80
2023-04-11T07:59:03.323Z,67.70
2023-04-11T08:01:32.076Z,67.60
2023-04-11T08:04:01.004Z,67.50
2023-04-11T08:06:31.930Z,67.50
2023-04-11T08:09:01.990Z,67.70
2023-04-11T08:11:30.536Z,68.00
2023-04-11T08:13:58.919Z,67.90
2023-04-11T08:16:27.707Z,68.00
2023-04-11T08:18:57.275Z,68.20
2023-04-11T08:21:25.941Z,68.10
2023-04-11T08:23:54.137Z,68.10
2023-04-11T08:26:24.688Z,68.00
2023-04-11T08:28:53.195Z,67.90
2023-04-11T08:31:21.903Z,67.80
2023-04-11T08:33:50.137Z,67.50
2023-04-11T08:36:18.728Z,67.30
2023-04-11T08:38:46.813Z,67.20
2023-04-11T08:41:15.851Z,67.00
2023-04-11T08:43:47.450Z,66.70
2023-04-11T08:46:16.361Z,66.40
2023-04-11T08:48:45.183Z,65.80
2023-04-11T08:51:14.784Z,65.60
2023-04-11T08:53:44.063Z,65.60
2023-04-11T08:56:17.239Z,65.70
2023-04-11T08:58:47.447Z,65.90
2023-04-11T09:01:30.403Z,66.00
2023-04-11T09:04:00.036Z,66.30
2023-04-11T09:06:30.786Z,66.20
2023-04-11T09:09:00.539Z,66.30
2023-04-11T09:11:28.695Z,66.30
2023-04-11T09:14:11.956Z,66.00
2023-04-11T09:16:55.144Z,66.00
2023-04-11T09:19:27.722Z,66.10
2023-04-11T09:21:58.611Z,65.90
2023-04-11T09:24:27.115Z,65.70
2023-04-11T09:27:09.269Z,65.80
2023-04-11T09:29:40.723Z,65.90
2023-04-11T09:32:09.902Z,65.80
2023-04-11T09:34:41.153Z,65.80
2023-04-11T09:37:10.992Z,65.90
2023-04-11T09:39:39.111Z,65.70
2023-04-11T09:42:25.827Z,65.40
2023-04-11T09:44:55.314Z,65.20
2023-04-11T09:47:23.821Z,65.00
2023-04-11T09:49:52.877Z,64.80
2023-04-11T09:52:22.262Z,65.00
2023-04-11T09:54:51.924Z,65.00
2023-04-11T09:57:23.087Z,65.10
2023-04-11T09:59:53.498Z,65.20
2023-04-11T10:02:23.620Z,65.30
2023-04-11T10:04:53.473Z,65.40
2023-04-11T10:07:23.276Z,65.60
2023-04-11T10:09:51.448Z,65.50
2023-04-11T10:12:32.685Z,65.40
2023-04-11T10:15:08.747Z,65.30
2023-04-11T10:17:39.854Z,64.80
2023-04-11T10:20:43.873Z,64.40
2023-04-11T10:23:13.229Z,63.80
2023-04-11T10:25:56.022Z,63.50
2023-04-11T10:28:35.795Z,62.00
2023-04-11T10:31:06.416Z,61.40
2023-04-11T10:33:38.432Z,61.90
2023-04-11T10:36:10.867Z,60.80
2023-04-11T10:38:50.007Z,60.00
2023-04-11T10:41:29.645Z,59.60
2023-04-11T10:44:18.451Z,57.30
2023-04-11T10:46:48.795Z,58.10
2023-04-11T10:49:38.978Z,58.60
2023-04-11T10:52:21.752Z,57.70
2023-04-11T10:54:51.737Z,57.20
2023-04-11T10:57:20.421Z,57.70
2023-04-11T11:00:01.655Z,57.70
2023-04-11T11:02:40.096Z,57.10
2023-04-11T11:05:22.216Z,56.70
2023-04-11T11:07:51.522Z,56.50
2023-04-11T11:10:39.017Z,56.50
2023-04-11T11:13:07.164Z,55.90
2023-04-11T11:15:37.763Z,56.60
2023-04-11T11:18:08.841Z,56.50
2023-04-11T11:20:38.825Z,56.50
2023-04-11T11:23:08.800Z,56.40
2023-04-11T11:25:37.472Z,56.20
2023-04-11T11:28:08.135Z,56.10
2023-04-11T11:30:37.022Z,55.80
2023-04-11T11:33:20.703Z,54.80
2023-04-11T11:35:54.304Z,54.30
2023-04-11T11:38:24.574Z,54.80
2023-04-11T11:40:53.460Z,55.00
2023-04-11T11:43:22.218Z,55.10
2023-04-11T11:46:09.535Z,55.00
2023-04-11T11:48:37.915Z,54.90
2023-04-11T11:51:07.866Z,55.10
2023-04-11T11:53:36.430Z,55.40
2023-04-11T11:56:14.961Z,56.10
2023-04-11T11:58:46.613Z,55.00
2023-04-11T12:01:17.587Z,54.40
2023-04-11T12:03:49.680Z,54.50
2023-04-11T12:06:19.707Z,54.30
2023-04-11T12:08:51.707Z,53.50
2023-04-11T12:11:20.428Z,53.10
2023-04-11T12:13:54.291Z,53.10
2023-04-11T12:16:24.157Z,53.00
2023-04-11T12:18:52.441Z,53.30
2023-04-11T12:21:22.329Z,53.30
2023-04-11T12:23:50.388Z,53.20
2023-04-11T12:26:21.416Z,53.40
2023-04-11T12:28:50.490Z,53.60
2023-04-11T12:31:19.307Z,53.60
2023-04-11T12:33:47.423Z,53.50
2023-04-11T12:36:16.009Z,53.50
2023-04-11T12:38:45.616Z,53.30
2023-04-11T12:41:31.686Z,53.40
2023-04-11T12:44:02.600Z,53.40
2023-04-11T12:46:30.847Z,53.50
2023-04-11T12:48:59.397Z,53.60
2023-04-11T12:51:28.031Z,53.80
2023-04-11T12:53:57.465Z,53.80
2023-04-11T12:56:26.216Z,53.70
2023-04-11T12:58:54.391Z,53.60
2023-04-11T13:01:24.069Z,53.40
2023-04-11T13:03:52.268Z,53.30
2023-04-11T13:06:21.132Z,53.00
2023-04-11T13:08:49.722Z,52.10
2023-04-11T13:11:19.166Z,52.30
2023-04-11T13:13:47.208Z,52.00
2023-04-11T13:16:15.794Z,52.30
2023-04-11T13:18:44.404Z,51.90
2023-04-11T13:21:12.951Z,52.10
2023-04-11T13:23:41.004Z,52.20
2023-04-11T13:26:09.946Z,52.00
2023-04-11T13:28:39.389Z,51.70
2023-04-11T13:31:10.766Z,51.20
2023-04-11T13:33:40.500Z,51.30
2023-04-11T13:36:10.396Z,50.60
2023-04-11T13:38:38.643Z,50.50
2023-04-11T13:41:07.518Z,50.00
2023-04-11T13:43:35.701Z,49.90
2023-04-11T13:46:05.890Z,49.40
2023-04-11T13:48:34.446Z,49.20
2023-04-11T13:51:02.520Z,48.40
2023-04-11T13:53:31.237Z,48.60
2023-04-11T13:55:59.275Z,48.60
2023-04-11T13:58:27.347Z,48.80
2023-04-11T14:00:56.342Z,48.90
2023-04-11T14:03:25.949Z,49.20
2023-04-11T14:05:54.119Z,49.50
2023-04-11T14:08:22.148Z,49.90
2023-04-11T14:10:50.242Z,49.60
2023-04-11T14:13:18.288Z,49.80
2023-04-11T14:15:49.604Z,50.00
2023-04-11T14:18:20.177Z,50.20
2023-04-11T14:20:49.767Z,50.50
2023-04-11T14:23:18.545Z,51.60
2023-04-11T14:25:46.595Z,52.50
2023-04-11T14:28:14.785Z,53.30
2023-04-11T14:30:42.902Z,54.10
2023-04-11T14:33:11.078Z,54.40
2023-04-11T14:35:39.637Z,54.40
2023-04-11T14:38:09.093Z,55.00
2023-04-11T14:40:37.623Z,54.30
2023-04-11T14:43:06.421Z,53.50
2023-04-11T14:45:34.524Z,53.40
2023-04-11T14:48:03.526Z,53.20
2023-04-11T14:50:31.898Z,52.50
2023-04-11T14:53:01.474Z,52.00
2023-04-11T14:55:30.958Z,51.70
2023-04-11T14:57:59.530Z,51.30
2023-04-11T15:00:28.849Z,51.00
2023-04-11T15:02:57.950Z,51.00
2023-04-11T15:05:27.240Z,50.90
2023-04-11T15:07:55.522Z,51.00
2023-04-11T15:10:25.646Z,51.10
2023-04-11T15:12:55.659Z,50.90
2023-04-11T15:15:23.928Z,51.00
2023-04-11T15:18:24.717Z,51.00
2023-04-11T15:20:53.511Z,50.00
2023-04-11T15:23:22.363Z,50.20
2023-04-11T15:25:54.735Z,49.70
2023-04-11T15:28:25.989Z,48.70
2023-04-11T15:30:55.897Z,48.30
2023-04-11T15:33:25.102Z,47.70
2023-04-11T15:35:54.302Z,47.10
2023-04-11T15:38:23.377Z,47.50
2023-04-11T15:40:52.493Z,47.60
2023-04-11T15:43:20.931Z,47.20
2023-04-11T15:45:52.792Z,46.80
2023-04-11T15:48:21.007Z,46.30
2023-04-11T15:50:49.063Z,45.00
2023-04-11T15:53:17.611Z,45.80
2023-04-11T15:55:47.187Z,46.50
2023-04-11T15:58:15.840Z,45.40
2023-04-11T16:00:44.794Z,44.80
2023-04-11T16:03:17.051Z,44.80
2023-04-11T16:05:45.716Z,44.40
2023-04-11T16:08:13.792Z,44.10
2023-04-11T16:10:42.336Z,43.80
2023-04-11T16:13:10.703Z,44.20
2023-04-11T16:15:39.247Z,43.70
2023-04-11T16:18:07.899Z,44.10
2023-04-11T16:20:37.417Z,44.50
2023-04-11T16:23:05.949Z,44.00
2023-04-11T16:25:34.040Z,43.70
2023-04-11T16:28:02.559Z,42.80
2023-04-11T16:30:31.120Z,43.40
2023-04-11T16:32:59.243Z,43.60
2023-04-11T16:35:27.871Z,43.60
2023-04-11T16:37:57.801Z,43.70
2023-04-11T16:40:26.429Z,43.70
2023-04-11T16:42:54.498Z,43.90
2023-04-11T16:45:23.367Z,43.90
2023-04-11T16:47:51.481Z,43.90
2023-04-11T16:50:19.621Z,44.20
2023-04-11T16:52:48.164Z,44.00
2023-04-11T16:55:17.924Z,44.60
2023-04-11T16:57:46.562Z,44.60
2023-04-11T17:00:20.327Z,44.70
2023-04-11T17:02:49.280Z,44.90
2023-04-11T17:05:18.996Z,45.10
2023-04-11T17:07:47.717Z,44.80
2023-04-11T17:10:17.865Z,45.10
2023-04-11T17:12:45.909Z,45.30
2023-04-11T17:15:14.685Z,45.40
2023-04-11T17:17:42.788Z,45.60
2023-04-11T17:20:13.185Z,45.90
2023-04-11T17:22:43.845Z,46.10
2023-04-11T17:25:11.968Z,46.30
2023-04-11T17:27:41.888Z,46.50
2023-04-11T17:30:12.274Z,46.70
2023-04-11T17:32:40.539Z,46.80
2023-04-11T17:35:09.619Z,46.90
2023-04-11T17:37:39.903Z,46.90
2023-04-11T17:40:13.521Z,46.90
2023-04-11T17:42:43.326Z,46.80
2023-04-11T17:45:17.253Z,46.90
2023-04-11T17:47:47.588Z,46.90
2023-04-11T17:50:16.376Z,47.00
2023-04-11T17:52:46.651Z,47.10
2023-04-11T17:55:16.801Z,47.20
2023-04-11T17:57:48.998Z,47.40
2023-04-11T18:00:22.352Z,47.40
2023-04-11T18:02:53.469Z,47.60
2023-04-11T18:05:24.997Z,47.60
2023-04-11T18:07:56.583Z,47.60
2023-04-11T18:10:26.319Z,47.80
2023-04-11T18:12:57.442Z,48.00
2023-04-11T18:15:28.521Z,48.10
2023-04-11T18:17:56.628Z,48.20
2023-04-11T18:20:24.727Z,48.30
2023-04-11T18:22:56.580Z,48.30
2023-04-11T18:25:24.942Z,48.50
2023-04-11T18:27:52.975Z,48.70
2023-04-11T18:30:22.556Z,48.80
2023-04-11T18:32:53.639Z,48.90
2023-04-11T18:35:22.209Z,49.00
2023-04-11T18:37:51.524Z,49.00
2023-04-11T18:40:19.681Z,49.10
2023-04-11T18:42:51.752Z,49.10
2023-04-11T18:45:22.383Z,49.10
2023-04-11T18:47:51.520Z,49.20
2023-04-11T18:50:19.986Z,49.20
2023-04-11T18:52:53.027Z,49.30
2023-04-11T18:55:23.214Z,49.30
2023-04-11T18:57:53.334Z,49.90
2023-04-11T19:00:26.062Z,49.20
2023-04-11T19:02:54.795Z,49.10
2023-04-11T19:05:25.581Z,49.00
2023-04-11T19:07:54.322Z,49.10
2023-04-11T19:10:22.559Z,48.40
2023-04-11T19:12:51.138Z,49.10
2023-04-11T19:15:19.354Z,49.20
2023-04-11T19:17:49.349Z,49.10
2023-04-11T19:20:18.925Z,49.30
2023-04-11T19:22:47.633Z,49.30
2023-04-11T19:25:15.896Z,49.40
2023-04-11T19:27:44.807Z,49.40
2023-04-11T19:30:14.402Z,49.50
2023-04-11T19:32:46.130Z,49.70
2023-04-11T19:35:16.214Z,49.70
2023-04-11T19:37:44.480Z,49.80
2023-04-11T19:40:13.592Z,49.80
2023-04-11T19:42:43.371Z,49.80
2023-04-11T19:45:12.226Z,49.80
2023-04-11T19:47:41.496Z,49.90
2023-04-11T19:50:13.149Z,50.10
2023-04-11T19:52:44.385Z,50.20
2023-04-11T19:55:13.004Z,50.30
2023-04-11T19:57:44.041Z,50.40
2023-04-11T20:00:14.144Z,50.50
2023-04-11T20:02:45.924Z,50.80
2023-04-11T20:05:16.054Z,50.90
2023-04-11T20:07:45.800Z,51.20
2023-04-11T20:10:14.766Z,51.40
2023-04-11T20:12:43.355Z,51.50
2023-04-11T20:15:14.399Z,51.60
2023-04-11T20:17:45.906Z,51.80
2023-04-11T20:20:15.503Z,52.00
2023-04-11T20:22:46.283Z,52.20
2023-04-11T20:25:14.432Z,52.10
2023-04-11T20:27:43.572Z,52.20
2023-04-11T20:30:13.236Z,52.30
2023-04-11T20:32:42.680Z,52.40
2023-04-11T20:35:15.818Z,52.60
2023-04-11T20:37:45.436Z,52.70
2023-04-11T20:40:14.411Z,52.80
2023-04-11T20:42:45.424Z,52.90
2023-04-11T20:45:16.138Z,53.10
2023-04-11T20:47:46.251Z,53.20
2023-04-11T20:50:16.329Z,53.50
2023-04-11T20:52:47.645Z,53.50
2023-04-11T20:55:15.793Z,53.40
2023-04-11T20:57:44.773Z,53.30
2023-04-11T21:00:14.888Z,53.30
2023-04-11T21:02:44.399Z,53.30
2023-04-11T21:05:13.332Z,53.40
2023-04-11T21:07:43.271Z,53.50
2023-04-11T21:10:13.333Z,53.60
2023-04-11T21:12:42.415Z,53.70
2023-04-11T21:15:12.287Z,53.80
2023-04-11T21:17:40.550Z,53.70
2023-04-11T21:20:18.302Z,53.80
2023-04-11T21:22:48.154Z,54.00
2023-04-11T21:25:18.101Z,53.90
2023-04-11T21:27:46.583Z,54.70
2023-04-11T21:30:15.974Z,54.10
2023-04-11T21:32:44.594Z,54.20
2023-04-11T21:35:13.391Z,54.30
2023-04-11T21:37:41.953Z,54.40
2023-04-11T21:40:11.161Z,54.40
2023-04-11T21:42:40.987Z,54.40
2023-04-11T21:45:10.507Z,54.50
2023-04-11T21:47:39.234Z,54.70
2023-04-11T21:50:08.509Z,54.60
2023-04-11T21:52:36.655Z,54.70
2023-04-11T21:55:07.196Z,55.10
2023-04-11T21:57:37.423Z,54.90
2023-04-11T22:00:11.298Z,54.90
2023-04-11T22:02:40.233Z,54.90
2023-04-11T22:05:09.950Z,55.00
2023-04-11T22:07:47.839Z,54.90
2023-04-11T22:10:22.185Z,54.80
2023-04-11T22:12:50.827Z,54.90
2023-04-11T22:15:20.256Z,54.80
2023-04-11T22:17:51.381Z,54.90
2023-04-11T22:20:20.057Z,54.80
2023-04-11T22:22:48.169Z,54.80
2023-04-11T22:25:18.452Z,54.80
2023-04-11T22:27:46.575Z,54.80
2023-04-11T22:30:16.925Z,54.80
2023-04-11T22:32:47.462Z,54.90
2023-04-11T22:35:15.549Z,54.90
2023-04-11T22:37:44.059Z,54.90
2023-04-11T22:40:13.629Z,54.90
2023-04-11T22:42:42.202Z,54.80
2023-04-11T22:45:12.122Z,54.90
2023-04-11T22:47:40.731Z,55.00
2023-04-11T22:50:11.488Z,55.00
2023-04-11T22:52:42.448Z,55.00
2023-04-11T22:55:11.920Z,55.00
2023-04-11T22:57:41.406Z,55.00
2023-04-11T23:00:12.675Z,55.00
2023-04-11T23:02:41.421Z,55.10
2023-04-11T23:05:11.677Z,55.80
2023-04-11T23:07:39.865Z,55.10
2023-04-11T23:10:12.265Z,55.10
2023-04-11T23:12:41.090Z,55.10
2023-04-11T23:15:10.800Z,55.10
2023-04-11T23:17:40.488Z,55.30
2023-04-11T23:20:13.476Z,55.20
2023-04-11T23:22:44.215Z,55.20
2023-04-11T23:25:14.113Z,55.20
2023-04-11T23:27:43.367Z,55.90
2023-04-11T23:30:12.593Z,55.20
2023-04-11T23:32:41.494Z,55.20
2023-04-11T23:35:12.197Z,55.30
2023-04-11T23:37:41.392Z,55.30
2023-04-11T23:40:13.960Z,55.30
2023-04-11T23:42:43.266Z,55.30
2023-04-11T23:45:13.090Z,55.40
2023-04-11T23:47:41.225Z,55.50
2023-04-11T23:50:12.644Z,55.60
2023-04-11T23:52:40.820Z,55.70
2023-04-11T23:55:10.394Z,55.70
2023-04-11T23:57:38.465Z,55.70
